Time;durP1;ratioP1;P1;durP2;ratioP2;P2;SDS_P1;SDS_P2;PMS_P1;PMS_P2;Temp;Humidity;BMP_temperature;BMP_pressure;BME280_temperature;BME280_humidity;BME280_pressure;Samples;Min_cycle;Max_cycle;Signal;HPM_P1;HPM_P2
2021/10/14 00:00:26;;;;;;;15.73;11.40;;;;;;;2.54;100.00;96781.25;1027127;28;20094;-67
2021/10/14 00:00:57;;;;;;;13.13;9.50;;;;;;;2.52;100.00;96776.28;1031114;28;20033;-69
2021/10/14 00:01:27;;;;;;;18.65;11.02;;;;;;;2.49;100.00;96779.25;1027502;28;20026;-68
2021/10/14 00:01:58;;;;;;;14.95;10.43;;;;;;;2.50;100.00;96772.28;1031114;28;20033;-67
2021/10/14 00:02:29;;;;;;;15.50;10.68;;;;;;;2.49;100.00;96776.66;1031127;28;20026;-68
2021/10/14 00:02:59;;;;;;;15.72;11.06;;;;;;;2.42;100.00;96765.44;1027384;28;20054;-68
2021/10/14 00:03:30;;;;;;;15.85;10.98;;;;;;;2.49;100.00;96775.84;1031050;28;20038;-67
2021/10/14 00:04:00;;;;;;;15.10;10.98;;;;;;;2.48;100.00;96776.81;1022990;29;20030;-68
2021/10/14 00:04:31;;;;;;;17.50;10.55;;;;;;;2.47;100.00;96778.63;1023026;28;20618;-69
2021/10/14 00:05:02;;;;;;;16.58;10.45;;;;;;;2.44;100.00;96778.97;1027009;28;20081;-67
2021/10/14 00:05:32;;;;;;;14.18;9.85;;;;;;;2.44;100.00;96783.38;1027435;28;20031;-68
2021/10/14 00:06:03;;;;;;;13.93;9.57;;;;;;;2.41;100.00;96775.97;1035161;28;20088;-67
2021/10/14 00:06:33;;;;;;;12.70;10.02;;;;;;;2.41;100.00;96779.34;1034408;28;20630;-67
2021/10/14 00:07:04;;;;;;;18.55;11.23;;;;;;;2.41;100.00;96778.56;1030362;28;20037;-67
2021/10/14 00:07:34;;;;;;;15.90;9.93;;;;;;;2.36;100.00;96771.34;1035132;28;20427;-69
2021/10/14 00:08:05;;;;;;;15.48;10.93;;;;;;;2.40;100.00;96776.97;1030392;28;20513;-67
2021/10/14 00:08:35;;;;;;;16.38;10.77;;;;;;;2.37;100.00;96772.94;1035242;28;20030;-68
2021/10/14 00:09:06;;;;;;;15.90;10.63;;;;;;;2.35;100.00;96782.69;1039135;28;20053;-68
2021/10/14 00:09:36;;;;;;;15.32;10.00;;;;;;;2.35;100.00;96780.13;1029784;28;20444;-67
2021/10/14 00:10:07;;;;;;;18.00;11.35;;;;;;;2.32;100.00;96780.47;1030700;28;20136;-67
2021/10/14 00:10:37;;;;;;;15.05;10.05;;;;;;;2.32;100.00;96775.31;1026751;28;20038;-67
2021/10/14 00:11:08;;;;;;;16.13;11.23;;;;;;;2.30;100.00;96772.09;1023142;28;20035;-68
2021/10/14 00:11:38;;;;;;;17.85;11.02;;;;;;;2.24;100.00;96767.63;1030627;28;20411;-69
2021/10/14 00:12:09;;;;;;;18.00;11.90;;;;;;;2.26;100.00;96776.81;1027023;28;20023;-68
2021/10/14 00:12:39;;;;;;;17.77;12.00;;;;;;;1.98;100.00;96739.69;1031002;28;20024;-67
2021/10/14 00:13:10;;;;;;;16.15;10.70;;;;;;;2.24;100.00;96778.00;1030779;28;20023;-69
2021/10/14 00:13:40;;;;;;;14.55;10.88;;;;;;;2.21;100.00;96778.34;1025435;28;20090;-68
2021/10/14 00:14:11;;;;;;;18.48;10.85;;;;;;;2.20;100.00;96772.38;1030598;28;20053;-68
2021/10/14 00:14:41;;;;;;;14.82;10.98;;;;;;;2.20;100.00;96776.75;1031087;28;20111;-68
2021/10/14 00:15:11;;;;;;;17.55;11.25;;;;;;;2.20;100.00;96776.75;1034933;28;20042;-68
2021/10/14 00:15:42;;;;;;;15.40;11.05;;;;;;;2.19;100.00;96780.34;1031055;28;20022;-68
2021/10/14 00:16:13;;;;;;;16.67;10.38;;;;;;;2.23;100.00;96776.41;1026990;28;20046;-69
2021/10/14 00:16:43;;;;;;;16.92;10.75;;;;;;;2.19;100.00;96770.00;1027035;28;20094;-68
2021/10/14 00:17:14;;;;;;;16.63;11.52;;;;;;;2.27;100.00;96773.25;1023128;29;20031;-70
2021/10/14 00:17:44;;;;;;;16.00;11.05;;;;;;;2.26;100.00;96782.00;1022618;29;20053;-67
2021/10/14 00:18:15;;;;;;;16.02;10.98;;;;;;;2.28;100.00;96777.47;1022882;29;20497;-69
2021/10/14 00:18:45;;;;;;;16.25;10.82;;;;;;;2.30;100.00;96782.44;1019067;29;20063;-69
2021/10/14 00:19:15;;;;;;;16.00;10.75;;;;;;;2.27;100.00;96781.00;1019396;28;20024;-68
2021/10/14 00:19:46;;;;;;;16.02;10.73;;;;;;;2.25;100.00;96779.63;1022958;28;20039;-67
2021/10/14 00:20:16;;;;;;;15.30;10.27;;;;;;;2.25;100.00;96777.81;1031111;28;20037;-70
2021/10/14 00:20:47;;;;;;;20.63;11.30;;;;;;;2.25;100.00;96784.78;1027184;28;20069;-67
2021/10/14 00:21:17;;;;;;;16.17;10.88;;;;;;;2.23;100.00;96779.00;1022994;28;20159;-67
2021/10/14 00:21:48;;;;;;;14.05;10.30;;;;;;;2.21;100.00;96780.94;1019131;29;20035;-68
2021/10/14 00:22:18;;;;;;;18.63;11.13;;;;;;;2.26;100.00;96781.22;1020094;28;20031;-67
2021/10/14 00:22:48;;;;;;;18.33;11.75;;;;;;;2.23;100.00;96776.41;1027031;28;20027;-68
2021/10/14 00:23:19;;;;;;;17.95;10.55;;;;;;;2.17;100.00;96769.38;1031175;28;20030;-69
2021/10/14 00:23:49;;;;;;;14.07;9.93;;;;;;;2.18;100.00;96773.53;1034100;28;20033;-67
2021/10/14 00:24:20;;;;;;;16.25;11.70;;;;;;;2.09;100.00;96759.94;1038952;28;20633;-69
2021/10/14 00:24:52;;;;;;;17.77;11.40;;;;;;;2.13;100.00;96772.31;1031048;28;20379;-68
2021/10/14 00:25:22;;;;;;;16.36;10.98;;;;;;;2.13;100.00;96772.31;1030880;28;20031;-68
2021/10/14 00:25:52;;;;;;;16.48;11.13;;;;;;;2.11;100.00;96773.47;1026977;28;20027;-69
2021/10/14 00:26:23;;;;;;;16.98;11.10;;;;;;;2.08;100.00;96774.66;1023583;28;20027;-67
2021/10/14 00:26:53;;;;;;;19.83;11.82;;;;;;;2.06;100.00;96771.44;1031035;28;20034;-68
2021/10/14 00:27:24;;;;;;;17.73;10.43;;;;;;;2.10;100.00;96779.66;1026984;28;20026;-69
2021/10/14 00:27:54;;;;;;;15.00;11.45;;;;;;;2.13;100.00;96774.91;1026372;28;20030;-68
2021/10/14 00:28:25;;;;;;;15.27;10.07;;;;;;;2.09;100.00;96773.66;1026668;28;20073;-68
2021/10/14 00:28:57;;;;;;;18.38;10.95;;;;;;;2.10;100.00;96777.06;1023104;28;20023;-68
2021/10/14 00:29:27;;;;;;;15.26;11.12;;;;;;;2.05;100.00;96769.84;1030831;28;20036;-69
2021/10/14 00:29:58;;;;;;;16.98;11.63;;;;;;;2.05;100.00;96763.88;1027228;28;20026;-68
2021/10/14 00:30:28;;;;;;;17.13;11.25;;;;;;;2.03;100.00;96763.25;1031471;28;20018;-67
2021/10/14 00:31:02;;;;;;;17.60;10.80;;;;;;;2.14;100.00;96770.53;1034960;28;20026;-68
2021/10/14 00:31:32;;;;;;;20.06;12.36;;;;;;;2.15;100.00;96768.72;1031464;28;20018;-67
2021/10/14 00:32:03;;;;;;;17.55;11.18;;;;;;;2.05;100.00;96756.91;1030868;28;20046;-67
2021/10/14 00:32:33;;;;;;;16.95;11.77;;;;;;;2.15;100.00;96763.56;1026995;28;20026;-68
2021/10/14 00:33:04;;;;;;;19.55;11.57;;;;;;;2.15;100.00;96763.56;1031136;28;20049;-68
2021/10/14 00:33:34;;;;;;;20.80;11.88;;;;;;;2.12;100.00;96765.53;1034951;28;20072;-69
2021/10/14 00:34:05;;;;;;;15.90;11.00;;;;;;;2.12;100.00;96767.34;1038079;28;20025;-68
2021/10/14 00:34:35;;;;;;;18.35;12.10;;;;;;;2.12;100.00;96764.75;1035166;28;20037;-68
2021/10/14 00:35:06;;;;;;;18.30;11.32;;;;;;;2.00;100.00;96748.88;1035023;28;20018;-67
2021/10/14 00:35:37;;;;;;;17.02;11.48;;;;;;;2.07;100.00;96764.47;1026900;28;20669;-67
2021/10/14 00:36:07;;;;;;;16.80;11.40;;;;;;;2.10;100.00;96766.69;1026834;28;20052;-68
2021/10/14 00:36:38;;;;;;;17.23;11.75;;;;;;;2.10;100.00;96766.69;1026916;28;20239;-68
2021/10/14 00:37:08;;;;;;;16.17;11.90;;;;;;;2.13;100.00;96767.13;1027394;28;20019;-67
2021/10/14 00:37:38;;;;;;;17.55;11.45;;;;;;;2.16;100.00;96765.19;1026088;28;20031;-67
2021/10/14 00:38:09;;;;;;;21.45;11.88;;;;;;;2.19;100.00;96770.00;1023810;28;20535;-68
2021/10/14 00:38:39;;;;;;;15.63;10.88;;;;;;;2.20;100.00;96766.41;1023019;29;20058;-69
2021/10/14 00:39:10;;;;;;;17.50;11.45;;;;;;;2.21;100.00;96770.59;1019099;29;20036;-68
2021/10/14 00:39:43;;;;;;;14.88;11.48;;;;;;;2.17;100.00;96771.94;1010827;29;20418;-67
2021/10/14 00:40:14;;;;;;;17.98;11.82;;;;;;;2.16;100.00;96768.56;1014821;29;20714;-69
2021/10/14 00:40:45;;;;;;;18.74;10.96;;;;;;;2.21;100.00;96773.97;1013221;29;20036;-66
2021/10/14 00:41:16;;;;;;;16.15;10.75;;;;;;;2.20;100.00;96766.41;1019263;29;20118;-65
2021/10/14 00:41:46;;;;;;;18.23;11.40;;;;;;;2.19;100.00;96764.81;1026471;28;20031;-68
2021/10/14 00:42:17;;;;;;;21.48;12.13;;;;;;;2.19;100.00;96770.00;1023026;28;20039;-66
2021/10/14 00:42:47;;;;;;;18.60;11.73;;;;;;;2.11;100.00;96769.13;1023337;28;20172;-68
2021/10/14 00:43:18;;;;;;;17.15;10.77;;;;;;;2.19;100.00;96780.34;1019164;29;20035;-67
2021/10/14 00:43:56;;;;;;;17.10;10.90;;;;;;;2.20;100.00;96771.59;1016801;29;20035;-68
2021/10/14 00:44:26;;;;;;;16.80;11.78;;;;;;;2.21;100.00;96780.94;1012064;29;20035;-69
2021/10/14 00:44:57;;;;;;;16.25;10.88;;;;;;;2.20;100.00;96772.38;1021230;28;20520;-67
2021/10/14 00:45:27;;;;;;;18.48;12.13;;;;;;;2.22;100.00;96774.81;1023255;29;20513;-68
2021/10/14 00:45:58;;;;;;;18.80;12.13;;;;;;;2.18;100.00;96776.13;1023074;28;20138;-67
2021/10/14 00:46:28;;;;;;;17.67;11.80;;;;;;;2.23;100.00;96781.56;1027230;28;20030;-68
2021/10/14 00:46:59;;;;;;;21.20;11.68;;;;;;;2.26;100.00;96781.22;1019311;29;20039;-69
2021/10/14 00:47:29;;;;;;;19.33;11.48;;;;;;;2.19;100.00;96772.56;1019556;29;20032;-69
2021/10/14 00:48:00;;;;;;;18.90;11.75;;;;;;;2.25;100.00;96779.63;1018889;29;20020;-69
2021/10/14 00:48:30;;;;;;;17.42;11.73;;;;;;;2.17;100.00;96771.94;1023580;28;20027;-68
2021/10/14 00:49:00;;;;;;;19.95;12.13;;;;;;;2.25;100.00;96782.22;1027323;28;20027;-68
2021/10/14 00:49:31;;;;;;;17.85;11.93;;;;;;;2.27;100.00;96780.22;1031603;28;20035;-69
2021/10/14 00:50:01;;;;;;;15.15;11.38;;;;;;;2.31;100.00;96778.84;1039291;28;20030;-68
2021/10/14 00:50:32;;;;;;;15.25;11.32;;;;;;;2.29;100.00;96773.06;1039205;28;20029;-68
2021/10/14 00:51:02;;;;;;;17.70;11.90;;;;;;;2.32;100.00;96770.91;1031289;28;20419;-69
2021/10/14 00:51:33;;;;;;;18.23;11.88;;;;;;;2.33;100.00;96776.91;1023224;29;20027;-68
2021/10/14 00:52:03;;;;;;;22.63;11.88;;;;;;;2.32;100.00;96776.09;1019338;29;20035;-68
2021/10/14 00:52:34;;;;;;;17.75;11.35;;;;;;;2.27;100.00;96765.47;1015182;29;20122;-69
2021/10/14 00:53:06;;;;;;;18.72;12.12;;;;;;;2.32;100.00;96775.31;1023222;28;20039;-68
2021/10/14 00:53:37;;;;;;;17.32;11.26;;;;;;;2.33;100.00;96774.31;1027318;28;20031;-69
2021/10/14 00:54:07;;;;;;;16.77;11.40;;;;;;;2.31;100.00;96765.91;1023141;29;20102;-68
2021/10/14 00:54:38;;;;;;;19.48;13.15;;;;;;;2.34;100.00;96771.53;1018179;29;20302;-67
2021/10/14 00:55:10;;;;;;;18.30;12.23;;;;;;;2.24;100.00;96759.88;1011288;29;20039;-70
2021/10/14 00:55:41;;;;;;;18.80;11.70;;;;;;;2.33;100.00;96763.94;1015242;29;20518;-69
2021/10/14 00:56:11;;;;;;;18.25;11.60;;;;;;;2.31;100.00;96758.97;1015748;29;20066;-69
2021/10/14 00:56:42;;;;;;;19.42;12.48;;;;;;;2.29;100.00;96754.94;1018847;29;20449;-68
2021/10/14 00:57:13;;;;;;;17.42;12.38;;;;;;;2.16;100.00;96740.09;1015200;29;20038;-68
2021/10/14 00:57:43;;;;;;;20.98;12.27;;;;;;;2.34;100.00;96762.94;1014778;29;20081;-68
2021/10/14 00:58:13;;;;;;;21.83;12.02;;;;;;;2.35;100.00;96765.38;1019302;28;20035;-69
2021/10/14 00:58:44;;;;;;;19.02;11.82;;;;;;;2.32;100.00;96764.94;1022670;28;20038;-67
2021/10/14 00:59:15;;;;;;;16.75;11.85;;;;;;;2.35;100.00;96765.38;1026232;28;20506;-68
2021/10/14 00:59:45;;;;;;;18.98;12.35;;;;;;;2.34;100.00;96768.94;1022450;29;20030;-68
2021/10/14 01:00:17;;;;;;;16.25;10.40;;;;;;;2.36;100.00;96768.75;1023395;29;20058;-68
2021/10/14 01:00:48;;;;;;;20.06;11.98;;;;;;;2.35;100.00;96762.78;1023645;28;20135;-69
2021/10/14 01:01:18;;;;;;;22.23;12.52;;;;;;;2.37;100.00;96767.75;1030941;28;20033;-68
2021/10/14 01:01:48;;;;;;;22.02;12.60;;;;;;;2.36;100.00;96773.94;1031367;28;20030;-68
2021/10/14 01:02:19;;;;;;;21.95;12.02;;;;;;;2.37;100.00;96767.75;1031076;28;20026;-69
2021/10/14 01:02:49;;;;;;;17.83;11.95;;;;;;;2.39;100.00;96773.56;1031098;28;20030;-67
2021/10/14 01:03:20;;;;;;;21.85;12.73;;;;;;;2.44;100.00;96770.41;1027129;28;20034;-68
2021/10/14 01:03:50;;;;;;;20.42;12.15;;;;;;;2.47;100.00;96770.84;1027091;28;20030;-67
2021/10/14 01:04:21;;;;;;;18.23;11.85;;;;;;;2.46;100.00;96761.47;1023111;29;20035;-67
2021/10/14 01:04:54;;;;;;;18.17;11.77;;;;;;;2.46;100.00;96769.25;1021503;28;20034;-68
2021/10/14 01:05:25;;;;;;;19.74;12.18;;;;;;;2.49;100.00;96765.50;1031048;28;20713;-68
2021/10/14 01:05:56;;;;;;;15.85;10.43;;;;;;;2.49;100.00;96766.28;1023693;28;20054;-67
2021/10/14 01:06:26;;;;;;;17.78;11.62;;;;;;;2.50;100.00;96775.66;1022977;29;20418;-67
2021/10/14 01:06:57;;;;;;;18.20;11.35;;;;;;;2.54;100.00;96774.28;1018902;29;20031;-68
2021/10/14 01:07:28;;;;;;;18.38;11.88;;;;;;;2.48;100.00;96769.06;1023383;28;20530;-68
2021/10/14 01:07:59;;;;;;;22.27;12.27;;;;;;;2.53;100.00;96777.88;1026488;28;20030;-68
2021/10/14 01:08:29;;;;;;;18.10;12.48;;;;;;;2.53;100.00;96777.88;1027125;28;20274;-69
2021/10/14 01:09:00;;;;;;;17.83;11.73;;;;;;;2.55;100.00;96775.91;1023007;28;20054;-68
2021/10/14 01:09:30;;;;;;;19.08;11.43;;;;;;;2.53;100.00;96777.09;1023079;29;20023;-68
2021/10/14 01:10:01;;;;;;;17.48;11.65;;;;;;;2.50;100.00;96775.66;1025211;28;20122;-67
2021/10/14 01:10:31;;;;;;;17.33;11.27;;;;;;;2.53;100.00;96771.91;1029993;28;20037;-68
2021/10/14 01:11:02;;;;;;;17.23;11.55;;;;;;;2.48;100.00;96767.28;1026943;28;20037;-68
2021/10/14 01:11:32;;;;;;;19.20;12.60;;;;;;;2.51;100.00;96766.88;1022961;29;20397;-68
2021/10/14 01:12:03;;;;;;;18.90;12.35;;;;;;;2.49;100.00;96762.91;1014785;29;20032;-69
2021/10/14 01:12:35;;;;;;;18.40;12.12;;;;;;;2.48;100.00;96764.69;1015295;29;20024;-67
2021/10/14 01:13:05;;;;;;;18.58;12.62;;;;;;;2.47;100.00;96760.47;1015387;29;20047;-66
2021/10/14 01:13:35;;;;;;;20.05;12.05;;;;;;;2.46;100.00;96765.88;1023437;28;20030;-68
2021/10/14 01:14:06;;;;;;;18.63;12.02;;;;;;;2.40;100.00;96762.22;1027210;28;20035;-68
2021/10/14 01:14:36;;;;;;;18.83;12.15;;;;;;;2.43;100.00;96769.63;1023035;29;20023;-66
2021/10/14 01:15:20;;;;;;;20.35;11.70;;;;;;;2.45;100.00;96769.41;1022667;29;20042;-68
2021/10/14 01:15:51;;;;;;;18.96;11.94;;;;;;;2.45;100.00;96774.59;1024824;28;20066;-68
2021/10/14 01:16:21;;;;;;;16.73;11.23;;;;;;;2.43;100.00;96774.81;1030553;28;20484;-67
2021/10/14 01:16:52;;;;;;;18.15;11.65;;;;;;;2.40;100.00;96766.59;1027144;28;20698;-68
2021/10/14 01:17:22;;;;;;;18.15;11.77;;;;;;;2.33;100.00;96758.75;1026775;28;20426;-68
2021/10/14 01:17:54;;;;;;;21.17;13.70;;;;;;;2.37;100.00;96762.59;1026427;28;20044;-68
2021/10/14 01:18:25;;;;;;;20.82;12.34;;;;;;;2.34;100.00;96758.56;1023374;28;20026;-68
2021/10/14 01:18:56;;;;;;;20.10;12.66;;;;;;;2.33;100.00;96758.75;1031062;28;20025;-67
2021/10/14 01:19:26;;;;;;;19.60;12.60;;;;;;;2.23;100.00;96746.13;1026818;28;20023;-68
2021/10/14 01:19:57;;;;;;;21.73;12.82;;;;;;;2.29;100.00;96766.09;1023096;28;20588;-67
2021/10/14 01:20:27;;;;;;;20.63;12.63;;;;;;;2.27;100.00;96762.09;1027031;28;20023;-67
2021/10/14 01:20:58;;;;;;;21.83;12.77;;;;;;;2.24;100.00;96759.88;1027003;28;20081;-69
2021/10/14 01:21:28;;;;;;;19.90;12.00;;;;;;;2.22;100.00;96761.84;1022826;29;20501;-67
2021/10/14 01:21:59;;;;;;;17.05;11.55;;;;;;;2.20;100.00;96756.06;1023074;28;20641;-68
2021/10/14 01:22:29;;;;;;;18.17;12.48;;;;;;;2.18;100.00;96758.84;1023010;28;20023;-69
2021/10/14 01:23:00;;;;;;;16.90;11.40;;;;;;;2.18;100.00;96760.59;1026916;28;20071;-69
2021/10/14 01:23:30;;;;;;;23.83;13.93;;;;;;;2.11;100.00;96753.59;1027065;28;20038;-67
2021/10/14 01:24:01;;;;;;;20.83;13.48;;;;;;;2.13;100.00;96751.59;1022966;29;20038;-68
2021/10/14 01:24:34;;;;;;;20.33;13.15;;;;;;;2.04;100.00;96750.09;1022853;29;20038;-69
2021/10/14 01:25:04;;;;;;;20.76;12.34;;;;;;;2.09;100.00;96759.94;1018153;29;20027;-68
2021/10/14 01:25:35;;;;;;;19.60;12.90;;;;;;;2.05;100.00;96761.28;1019399;29;20478;-68
2021/10/14 01:26:05;;;;;;;22.13;12.98;;;;;;;2.06;100.00;96761.09;1015601;29;20424;-69
2021/10/14 01:26:38;;;;;;;18.58;12.73;;;;;;;1.99;100.00;96747.28;1015419;29;20020;-68
2021/10/14 01:27:08;;;;;;;21.86;13.80;;;;;;;2.03;100.00;96755.47;1010846;29;20793;-68
2021/10/14 01:27:39;;;;;;;19.92;12.88;;;;;;;2.02;100.00;96759.88;1011022;29;20112;-65
2021/10/14 01:28:09;;;;;;;22.10;13.90;;;;;;;2.00;100.00;96758.44;1019113;29;20030;-68
2021/10/14 01:28:40;;;;;;;20.83;12.70;;;;;;;1.98;100.00;96760.38;1023249;28;20031;-69
2021/10/14 01:29:10;;;;;;;21.30;13.45;;;;;;;1.96;100.00;96752.03;1030662;28;20041;-68
2021/10/14 01:29:41;;;;;;;20.85;13.25;;;;;;;1.87;100.00;96741.78;1026336;28;20023;-67
2021/10/14 01:30:11;;;;;;;22.38;13.48;;;;;;;1.95;100.00;96758.19;1022969;29;20102;-68
2021/10/14 01:30:42;;;;;;;24.85;13.57;;;;;;;1.92;100.00;96759.34;1026945;28;20556;-68
2021/10/14 01:31:12;;;;;;;20.48;13.02;;;;;;;1.91;100.00;96760.31;1023032;29;20027;-67
2021/10/14 01:31:42;;;;;;;20.63;13.70;;;;;;;1.90;100.00;96750.97;1023110;29;20034;-68
2021/10/14 01:32:13;;;;;;;21.27;13.65;;;;;;;1.83;100.00;96747.50;1022948;28;20042;-68
2021/10/14 01:32:46;;;;;;;23.92;15.25;;;;;;;1.85;100.00;96759.28;1027852;28;20551;-67
2021/10/14 01:33:18;;;;;;;25.42;14.30;;;;;;;1.86;100.00;96754.91;1030642;28;20095;-67
2021/10/14 01:33:48;;;;;;;21.76;13.96;;;;;;;1.82;100.00;96746.69;1027505;28;20058;-69
2021/10/14 01:34:19;;;;;;;22.17;14.07;;;;;;;1.84;100.00;96751.69;1031465;28;20129;-68
2021/10/14 01:34:49;;;;;;;21.52;13.75;;;;;;;1.83;100.00;96750.88;1027662;28;20030;-67
2021/10/14 01:35:20;;;;;;;24.73;14.02;;;;;;;1.84;100.00;96751.69;1025338;28;20426;-67
2021/10/14 01:35:50;;;;;;;22.77;14.05;;;;;;;1.84;100.00;96751.69;1027225;28;20152;-68
2021/10/14 01:36:21;;;;;;;24.95;15.32;;;;;;;1.81;100.00;96749.47;1022783;28;20034;-69
2021/10/14 01:36:51;;;;;;;26.55;15.15;;;;;;;1.79;100.00;96749.66;1031030;28;20041;-68
2021/10/14 01:37:22;;;;;;;24.10;15.25;;;;;;;1.72;100.00;96738.44;1031051;28;20065;-68
2021/10/14 01:37:52;;;;;;;24.92;14.38;;;;;;;1.78;100.00;96755.03;1026397;28;20035;-67
2021/10/14 01:38:22;;;;;;;28.63;15.13;;;;;;;1.75;100.00;96745.84;1026714;28;20043;-67
2021/10/14 01:38:53;;;;;;;22.67;14.30;;;;;;;1.80;100.00;96753.84;1027080;28;20034;-67
2021/10/14 01:39:23;;;;;;;22.10;13.75;;;;;;;1.80;100.00;96747.88;1024918;28;20440;-68
2021/10/14 01:39:54;;;;;;;25.63;14.32;;;;;;;1.81;100.00;96745.13;1027028;28;20038;-67
2021/10/14 01:40:24;;;;;;;23.98;14.13;;;;;;;1.81;100.00;96752.03;1030450;28;20037;-68
2021/10/14 01:40:55;;;;;;;24.25;14.70;;;;;;;1.81;100.00;96752.88;1026818;28;20033;-68
2021/10/14 01:41:25;;;;;;;21.23;13.75;;;;;;;1.75;100.00;96743.25;1022543;28;20035;-67
2021/10/14 01:41:56;;;;;;;26.13;14.98;;;;;;;1.79;100.00;96752.25;1027018;28;20819;-69
2021/10/14 01:42:26;;;;;;;23.75;14.05;;;;;;;1.78;100.00;96755.03;1026787;28;20378;-68
2021/10/14 01:42:57;;;;;;;23.77;14.68;;;;;;;1.80;100.00;96748.66;1023013;28;20102;-67
2021/10/14 01:43:27;;;;;;;26.25;14.55;;;;;;;1.81;100.00;96749.47;1026788;28;20034;-66
2021/10/14 01:43:58;;;;;;;25.20;14.55;;;;;;;1.81;100.00;96752.03;1024328;28;20030;-67
2021/10/14 01:44:28;;;;;;;23.88;15.13;;;;;;;1.80;100.00;96751.25;1024562;28;20069;-67
2021/10/14 01:44:59;;;;;;;28.80;15.48;;;;;;;1.80;100.00;96753.03;1029585;28;20026;-68
2021/10/14 01:45:30;;;;;;;25.78;15.98;;;;;;;1.79;100.00;96754.81;1026647;28;20034;-67
2021/10/14 01:46:01;;;;;;;24.08;14.35;;;;;;;1.74;100.00;96741.63;1030547;28;20093;-68
2021/10/14 01:46:31;;;;;;;24.75;13.85;;;;;;;1.79;100.00;96748.84;1030402;28;20033;-67
2021/10/14 01:47:02;;;;;;;26.38;14.25;;;;;;;1.71;100.00;96744.59;1030796;28;20030;-68
2021/10/14 01:47:32;;;;;;;24.15;14.52;;;;;;;1.78;100.00;96748.06;1026573;28;20045;-67
2021/10/14 01:48:02;;;;;;;28.90;15.13;;;;;;;1.76;100.00;96751.81;1017327;29;20103;-68
2021/10/14 01:48:33;;;;;;;25.88;14.88;;;;;;;1.74;100.00;96751.16;1022532;28;20034;-68
2021/10/14 01:49:03;;;;;;;23.70;14.48;;;;;;;1.73;100.00;96744.41;1026602;28;20034;-68
2021/10/14 01:49:34;;;;;;;26.67;15.43;;;;;;;1.54;100.00;96719.91;1030920;28;20026;-68
2021/10/14 01:50:05;;;;;;;27.38;16.60;;;;;;;1.71;100.00;96747.19;1030688;28;20022;-67
2021/10/14 01:50:35;;;;;;;25.86;15.96;;;;;;;1.70;100.00;96747.34;1030612;28;20383;-68
2021/10/14 01:51:08;;;;;;;24.25;15.57;;;;;;;1.64;100.00;96741.94;1030778;28;20026;-70
2021/10/14 01:51:38;;;;;;;25.64;14.96;;;;;;;1.64;100.00;96738.53;1030975;28;20109;-69
2021/10/14 01:52:09;;;;;;;26.88;15.50;;;;;;;1.58;100.00;96737.47;1034855;28;20423;-69
2021/10/14 01:52:39;;;;;;;28.15;15.13;;;;;;;1.61;100.00;96741.47;1026801;28;20038;-69
2021/10/14 01:53:10;;;;;;;28.58;14.77;;;;;;;1.62;100.00;96745.69;1030704;28;20026;-68
2021/10/14 01:53:40;;;;;;;28.90;16.70;;;;;;;1.59;100.00;96740.88;1026707;28;20035;-68
2021/10/14 01:54:10;;;;;;;26.90;15.45;;;;;;;1.59;100.00;96740.88;1022638;28;20035;-67
2021/10/14 01:54:41;;;;;;;25.13;16.38;;;;;;;1.50;100.00;96729.81;1026430;28;20031;-67
2021/10/14 01:55:11;;;;;;;28.35;16.73;;;;;;;1.65;100.00;96742.72;1017292;29;20043;-68
2021/10/14 01:55:42;;;;;;;26.88;15.93;;;;;;;1.56;100.00;96726.50;1018766;28;20043;-68
2021/10/14 01:56:12;;;;;;;26.88;15.18;;;;;;;1.69;100.00;96743.16;1022752;29;20062;-67
2021/10/14 01:56:43;;;;;;;27.65;16.02;;;;;;;1.69;100.00;96735.41;1024853;28;20031;-68
2021/10/14 01:57:16;;;;;;;26.58;15.52;;;;;;;1.68;100.00;96738.97;1025366;28;20023;-69
2021/10/14 01:57:46;;;;;;;27.06;15.90;;;;;;;1.74;100.00;96738.25;1022282;28;20027;-67
2021/10/14 01:58:18;;;;;;;26.83;16.10;;;;;;;1.70;100.00;96737.00;1031103;28;20077;-66
2021/10/14 01:58:48;;;;;;;27.72;15.82;;;;;;;1.73;100.00;96739.22;1034486;28;20056;-68
2021/10/14 01:59:19;;;;;;;29.10;15.75;;;;;;;1.69;100.00;96741.38;1030553;28;20781;-67
2021/10/14 01:59:49;;;;;;;27.20;15.65;;;;;;;1.60;100.00;96727.72;1028682;28;20030;-68
2021/10/14 02:00:20;;;;;;;28.17;16.08;;;;;;;1.63;100.00;96732.53;1022874;28;20035;-67
2021/10/14 02:00:51;;;;;;;26.20;15.48;;;;;;;1.69;100.00;96740.59;1022551;28;20053;-69
2021/10/14 02:01:21;;;;;;;27.46;16.60;;;;;;;1.68;100.00;96742.38;1026332;28;20616;-68
2021/10/14 02:01:52;;;;;;;27.00;16.17;;;;;;;1.65;100.00;96742.72;1027077;28;20038;-67
2021/10/14 02:02:22;;;;;;;29.20;16.80;;;;;;;1.64;100.00;96747.09;1034633;28;20088;-68
2021/10/14 02:02:53;;;;;;;28.45;16.55;;;;;;;1.64;100.00;96744.53;1030772;28;20703;-67
2021/10/14 02:03:23;;;;;;;32.78;19.20;;;;;;;1.67;100.00;96752.88;1038524;28;20402;-67
2021/10/14 02:03:53;;;;;;;33.65;17.90;;;;;;;1.69;100.00;96750.94;1034753;28;20407;-69
2021/10/14 02:04:24;;;;;;;32.03;18.10;;;;;;;1.69;100.00;96749.13;1022397;29;20058;-67
2021/10/14 02:04:54;;;;;;;32.28;17.40;;;;;;;1.64;100.00;96747.09;1022797;28;20034;-69
2021/10/14 02:05:25;;;;;;;35.35;19.73;;;;;;;1.69;100.00;96745.75;1026355;28;20034;-68
2021/10/14 02:05:55;;;;;;;33.45;19.83;;;;;;;1.71;100.00;96746.34;1018831;28;20035;-68
2021/10/14 02:06:26;;;;;;;36.38;19.05;;;;;;;1.70;100.00;96742.19;1030452;28;20034;-68
2021/10/14 02:06:56;;;;;;;31.63;17.73;;;;;;;1.62;100.00;96738.72;1026652;28;20027;-69
2021/10/14 02:07:29;;;;;;;31.62;18.04;;;;;;;1.66;100.00;96746.91;1022894;28;20042;-69
2021/10/14 02:08:00;;;;;;;38.28;18.05;;;;;;;1.59;100.00;96739.06;1026311;28;20042;-67
2021/10/14 02:08:30;;;;;;;31.33;16.80;;;;;;;1.57;100.00;96743.63;1023290;28;20038;-67
2021/10/14 02:09:01;;;;;;;34.03;18.38;;;;;;;1.59;100.00;96751.22;1026947;28;20030;-67
2021/10/14 02:09:31;;;;;;;35.72;17.50;;;;;;;1.57;100.00;96738.44;1034574;28;20134;-67
2021/10/14 02:10:02;;;;;;;30.63;17.00;;;;;;;1.54;100.00;96741.41;1026863;28;20027;-68
2021/10/14 02:10:33;;;;;;;34.12;19.10;;;;;;;1.61;100.00;96746.63;1030316;28;20034;-67
2021/10/14 02:11:03;;;;;;;29.83;17.65;;;;;;;1.62;100.00;96743.88;1030514;28;20026;-68
2021/10/14 02:11:33;;;;;;;32.10;17.80;;;;;;;1.61;100.00;96744.88;1026913;28;20098;-68
2021/10/14 02:12:04;;;;;;;33.85;17.63;;;;;;;1.67;100.00;96747.72;1030720;28;20070;-68
2021/10/14 02:12:36;;;;;;;32.17;19.95;;;;;;;1.65;100.00;96742.72;1022794;29;20038;-68
2021/10/14 02:13:06;;;;;;;37.54;18.70;;;;;;;1.65;100.00;96742.72;1022615;29;20019;-67
2021/10/14 02:13:36;;;;;;;33.97;18.10;;;;;;;1.63;100.00;96748.06;1022413;29;20023;-67
2021/10/14 02:14:07;;;;;;;35.30;19.90;;;;;;;1.65;100.00;96743.53;1023527;28;20027;-67
2021/10/14 02:14:38;;;;;;;36.55;19.35;;;;;;;1.69;100.00;96749.13;1030729;28;20030;-67
2021/10/14 02:15:08;;;;;;;31.73;17.45;;;;;;;1.73;100.00;96754.75;1026782;28;20039;-68
2021/10/14 02:15:39;;;;;;;37.17;19.02;;;;;;;1.71;100.00;96751.53;1030561;28;20042;-69
2021/10/14 02:16:09;;;;;;;33.03;18.00;;;;;;;1.73;100.00;96755.56;1030519;28;20026;-68
2021/10/14 02:16:39;;;;;;;35.28;18.92;;;;;;;1.65;100.00;96748.69;1034863;28;20571;-68
2021/10/14 02:17:10;;;;;;;34.63;18.30;;;;;;;1.69;100.00;96754.31;1038552;28;20041;-69
2021/10/14 02:17:40;;;;;;;37.03;19.05;;;;;;;1.65;100.00;96748.69;1037740;28;20029;-67
2021/10/14 02:18:11;;;;;;;38.97;21.13;;;;;;;1.73;100.00;96752.16;1038238;28;20136;-69
2021/10/14 02:18:42;;;;;;;34.30;19.65;;;;;;;1.71;100.00;96756.72;1037968;28;20157;-68
2021/10/14 02:19:12;;;;;;;37.45;20.33;;;;;;;1.67;100.00;96750.28;1038525;28;20029;-68
2021/10/14 02:19:42;;;;;;;37.40;20.02;;;;;;;1.67;100.00;96761.44;1033032;28;20038;-67
2021/10/14 02:20:13;;;;;;;32.35;19.33;;;;;;;1.73;100.00;96758.13;1034337;28;20084;-69
2021/10/14 02:20:43;;;;;;;30.73;18.27;;;;;;;1.75;100.00;96758.78;1030509;28;20031;-69
2021/10/14 02:21:16;;;;;;;40.08;20.48;;;;;;;1.74;100.00;96751.97;1030477;28;20026;-68